createdAt,value
2022-10-23T00:03:02.412Z,6.8
2022-10-23T00:08:02.225Z,6.9
2022-10-23T00:13:01.723Z,6.9
2022-10-23T00:18:01.719Z,6.6
2022-10-23T00:23:01.750Z,6.5
2022-10-23T00:28:02.140Z,6.4
2022-10-23T00:38:01.854Z,6.4
2022-10-23T00:43:01.728Z,6.6
2022-10-23T00:48:01.783Z,6.5
2022-10-23T00:53:01.724Z,6.4
2022-10-23T00:58:01.823Z,5.9
2022-10-23T01:03:01.774Z,6.0
2022-10-23T01:08:01.842Z,5.9
2022-10-23T01:13:01.718Z,6.3
2022-10-23T01:18:01.707Z,7.2
2022-10-23T01:23:01.732Z,8.5
2022-10-23T01:28:01.712Z,9.5
2022-10-23T01:33:01.618Z,10.7
2022-10-23T01:38:01.798Z,11.6
2022-10-23T01:43:01.728Z,11.8
2022-10-23T01:48:01.765Z,11.5
2022-10-23T01:53:01.734Z,11.9
2022-10-23T02:03:01.722Z,12.4
2022-10-23T02:08:01.798Z,12.6
2022-10-23T02:13:01.725Z,13.4
2022-10-23T02:18:01.730Z,13.7
2022-10-23T02:23:01.734Z,13.2
2022-10-23T02:28:01.722Z,13.5
2022-10-23T02:33:01.721Z,13.5
2022-10-23T02:38:01.671Z,13.6
2022-10-23T02:48:01.846Z,14.0
2022-10-23T02:53:01.670Z,14.2
2022-10-23T02:58:01.651Z,14.6
2022-10-23T03:03:01.613Z,14.8
2022-10-23T03:08:01.681Z,14.9
2022-10-23T03:13:01.656Z,15.3
2022-10-23T03:19:01.947Z,15.6
2022-10-23T03:24:01.772Z,15.3
2022-10-23T03:29:01.753Z,15.0
2022-10-23T03:34:09.405Z,14.6
2022-10-23T03:39:01.745Z,14.0
2022-10-23T03:44:02.274Z,13.5
2022-10-23T03:49:01.774Z,13.8
2022-10-23T03:54:01.815Z,14.4
2022-10-23T03:59:01.773Z,13.9
2022-10-23T04:04:01.800Z,14.4
2022-10-23T04:09:02.101Z,15.2
2022-10-23T04:14:01.744Z,15.8
2022-10-23T04:19:01.730Z,15.8
2022-10-23T04:24:01.832Z,17.3
2022-10-23T04:29:01.830Z,17.8
2022-10-23T04:34:02.099Z,18.3
2022-10-23T04:39:01.753Z,18.4
2022-10-23T04:44:01.678Z,19.0
2022-10-23T04:49:01.736Z,19.0
2022-10-23T04:54:01.853Z,19.3
2022-10-23T04:59:01.906Z,19.0
2022-10-23T05:09:01.844Z,19.0
2022-10-23T05:14:01.721Z,19.1
2022-10-23T05:24:01.758Z,19.2
2022-10-23T05:29:01.750Z,19.9
2022-10-23T05:34:01.725Z,18.9
2022-10-23T05:39:03.507Z,18.5
2022-10-23T05:44:01.723Z,18.5
2022-10-23T05:49:01.902Z,18.4
2022-10-23T05:54:01.782Z,18.0
2022-10-23T05:59:01.824Z,19.2
2022-10-23T06:04:01.769Z,19.9
2022-10-23T06:09:01.881Z,20.3
2022-10-23T06:14:01.814Z,20.7
2022-10-23T06:19:01.747Z,21.3
2022-10-23T06:24:01.420Z,21.4
2022-10-23T06:29:01.823Z,21.6
2022-10-23T06:34:01.805Z,21.8
2022-10-23T06:39:01.740Z,21.7
2022-10-23T06:44:01.753Z,21.5
2022-10-23T06:49:02.723Z,21.6
2022-10-23T06:54:01.743Z,22.2
2022-10-23T06:59:01.676Z,22.4
2022-10-23T07:04:01.730Z,23.1
2022-10-23T07:09:02.329Z,23.8
2022-10-23T07:14:01.729Z,24.0
2022-10-23T07:19:01.988Z,23.7
2022-10-23T07:24:02.022Z,24.2
2022-10-23T07:34:01.879Z,24.3
2022-10-23T07:39:01.738Z,24.8
2022-10-23T07:44:02.242Z,24.8
2022-10-23T07:49:02.150Z,24.6
2022-10-23T07:54:02.017Z,24.2
2022-10-23T07:59:02.178Z,23.5
2022-10-23T08:04:01.721Z,22.7
2022-10-23T08:09:07.335Z,22.3
2022-10-23T08:14:01.785Z,21.9
2022-10-23T08:19:02.533Z,21.4
2022-10-23T08:24:02.381Z,21.0
2022-10-23T08:29:01.760Z,20.5
2022-10-23T08:34:01.775Z,20.1
2022-10-23T08:39:01.783Z,19.4
2022-10-23T08:44:01.629Z,19.0
2022-10-23T08:49:01.871Z,18.3
2022-10-23T08:55:01.909Z,17.9
2022-10-23T09:00:05.387Z,16.9
2022-10-23T09:05:01.809Z,15.8
2022-10-23T09:10:14.500Z,14.7
2022-10-23T09:15:12.179Z,13.7
2022-10-23T09:20:18.068Z,12.7
2022-10-23T09:25:02.174Z,12.0
2022-10-23T09:30:03.201Z,11.3
2022-10-23T09:35:03.087Z,10.8
2022-10-23T09:40:01.750Z,10.5
2022-10-23T09:45:02.546Z,10.4
2022-10-23T09:50:01.778Z,10.4
2022-10-23T09:55:14.797Z,10.9
2022-10-23T10:00:14.576Z,21.9
2022-10-23T10:05:01.722Z,22.5
2022-10-23T10:10:01.723Z,24.0
2022-10-23T10:15:17.402Z,27.5
2022-10-23T10:20:07.444Z,27.9
2022-10-23T10:25:01.716Z,17.3
2022-10-23T10:30:07.491Z,16.2
2022-10-23T10:36:01.701Z,14.2
2022-10-23T10:41:01.605Z,10.5
2022-10-23T10:46:17.876Z,9.5
2022-10-23T10:51:01.763Z,9.1
2022-10-23T10:56:01.861Z,9.6
2022-10-23T11:01:02.109Z,9.9
2022-10-23T11:11:01.710Z,10.5
2022-10-23T11:16:01.722Z,10.4
2022-10-23T11:21:01.639Z,10.5
2022-10-23T11:26:20.110Z,10.1
2022-10-23T11:31:01.730Z,9.8
2022-10-23T11:36:01.773Z,9.7
2022-10-23T11:41:01.635Z,9.6
2022-10-23T11:46:01.776Z,9.4
2022-10-23T11:51:05.548Z,9.5
2022-10-23T11:56:01.757Z,9.5
2022-10-23T12:01:01.920Z,9.1
2022-10-23T12:06:04.387Z,8.9
2022-10-23T12:11:01.900Z,8.3
2022-10-23T12:16:01.765Z,8.1
2022-10-23T12:21:01.786Z,8.6
2022-10-23T12:26:01.769Z,8.5
2022-10-23T12:31:01.736Z,8.2
2022-10-23T12:36:01.747Z,8.1
2022-10-23T12:46:01.738Z,7.8
2022-10-23T12:56:01.939Z,7.7
2022-10-23T13:01:02.330Z,7.8
2022-10-23T13:06:01.734Z,8.0
2022-10-23T13:11:02.037Z,8.0
2022-10-23T13:16:01.664Z,7.6
2022-10-23T13:26:01.738Z,7.5
2022-10-23T13:31:01.698Z,7.2
2022-10-23T13:36:01.746Z,7.4
2022-10-23T13:41:01.772Z,7.8
2022-10-23T13:46:02.114Z,8.6
2022-10-23T13:51:01.761Z,8.6
2022-10-23T13:57:01.756Z,8.6
2022-10-23T14:07:01.746Z,8.2
2022-10-23T14:12:01.752Z,8.6
2022-10-23T14:22:01.802Z,9.4
2022-10-23T14:27:01.805Z,9.6
2022-10-23T14:32:02.224Z,10.2
2022-10-23T14:37:09.662Z,10.0
2022-10-23T14:42:01.663Z,10.4
2022-10-23T14:47:01.767Z,10.0
2022-10-23T14:52:02.424Z,10.1
2022-10-23T14:57:01.728Z,10.3
2022-10-23T15:02:01.708Z,10.4
2022-10-23T15:07:01.728Z,11.0
2022-10-23T15:12:01.714Z,10.4
2022-10-23T15:17:02.234Z,10.9
2022-10-23T15:22:02.191Z,11.0
2022-10-23T15:27:01.888Z,11.2
2022-10-23T15:33:01.798Z,10.6
2022-10-23T15:38:01.699Z,12.0
2022-10-23T15:43:01.700Z,12.1
2022-10-23T15:48:01.727Z,12.4
2022-10-23T15:53:01.703Z,12.0
2022-10-23T15:58:01.773Z,12.8
2022-10-23T16:03:01.843Z,13.2
2022-10-23T16:08:01.795Z,13.4
2022-10-23T16:13:02.192Z,13.0
2022-10-23T16:18:01.707Z,13.6
2022-10-23T16:23:01.813Z,13.8
2022-10-23T16:28:01.723Z,15.2
2022-10-23T16:33:01.734Z,16.7
2022-10-23T16:38:01.730Z,18.2
2022-10-23T16:43:01.838Z,19.2
2022-10-23T16:48:02.330Z,19.3
2022-10-23T16:53:01.823Z,18.2
2022-10-23T16:58:01.727Z,17.1
2022-10-23T17:03:01.861Z,16.6
2022-10-23T17:08:01.769Z,16.7
2022-10-23T17:13:01.825Z,17.3
2022-10-23T17:18:01.763Z,17.4
2022-10-23T17:23:01.817Z,17.8
2022-10-23T17:28:01.919Z,17.4
2022-10-23T17:33:02.360Z,17.0
2022-10-23T17:38:01.616Z,16.5
2022-10-23T17:43:01.580Z,16.5
2022-10-23T17:48:01.402Z,16.8
2022-10-23T17:53:01.494Z,17.9
2022-10-23T17:58:01.366Z,18.7
2022-10-23T18:03:02.116Z,19.8
2022-10-23T18:08:01.693Z,20.0
2022-10-23T18:13:02.471Z,20.4
2022-10-23T18:18:01.647Z,20.4
2022-10-23T18:23:01.842Z,20.4
2022-10-23T18:28:02.944Z,19.8
2022-10-23T18:33:01.842Z,19.9
2022-10-23T18:38:01.813Z,20.1
2022-10-23T18:43:01.820Z,20.2
2022-10-23T18:48:01.778Z,20.4
2022-10-23T18:53:01.793Z,21.0
2022-10-23T18:58:01.781Z,20.9
2022-10-23T19:03:01.840Z,20.6
2022-10-23T19:08:01.751Z,20.6
2022-10-23T19:13:01.799Z,20.2
2022-10-23T19:23:01.950Z,20.7
2022-10-23T19:28:01.778Z,20.6
2022-10-23T19:33:01.494Z,20.6
2022-10-23T19:38:01.877Z,20.8
2022-10-23T19:43:01.832Z,20.6
2022-10-23T19:48:01.735Z,20.4
2022-10-23T19:53:01.821Z,20.8
2022-10-23T19:58:02.301Z,20.5
2022-10-23T20:03:01.739Z,20.7
2022-10-23T20:08:02.167Z,20.3
2022-10-23T20:18:01.804Z,20.6
2022-10-23T20:23:01.764Z,20.6
2022-10-23T20:28:02.694Z,20.0
2022-10-23T20:33:01.718Z,20.4
2022-10-23T20:38:01.807Z,20.3
2022-10-23T20:43:01.967Z,20.0
2022-10-23T20:48:02.172Z,19.6
2022-10-23T20:53:01.737Z,19.4
2022-10-23T21:03:01.857Z,19.2
2022-10-23T21:08:01.801Z,19.2
2022-10-23T21:13:01.724Z,19.9
2022-10-23T21:23:02.044Z,20.1
2022-10-23T21:28:01.730Z,19.7
2022-10-23T21:34:02.087Z,19.6
2022-10-23T21:39:01.821Z,19.4
2022-10-23T21:44:01.780Z,19.3
2022-10-23T21:54:01.721Z,19.5
2022-10-23T21:59:02.272Z,19.0
2022-10-23T22:04:01.724Z,18.8
2022-10-23T22:09:01.729Z,18.7
2022-10-23T22:14:01.743Z,17.6
2022-10-23T22:19:01.753Z,17.0
2022-10-23T22:24:01.805Z,17.1
2022-10-23T22:29:03.640Z,16.9
2022-10-23T22:39:01.788Z,15.6
2022-10-23T22:44:02.339Z,14.6
2022-10-23T22:49:01.923Z,13.1
2022-10-23T22:54:01.884Z,11.4
2022-10-23T22:59:01.799Z,10.8
2022-10-23T23:09:01.714Z,10.5
2022-10-23T23:14:02.672Z,11.1
2022-10-23T23:19:01.846Z,11.9
2022-10-23T23:24:01.825Z,13.1
2022-10-23T23:29:01.714Z,14.4
2022-10-23T23:34:01.619Z,14.7
2022-10-23T23:39:01.969Z,15.7
2022-10-23T23:44:01.694Z,16.5
2022-10-23T23:49:01.718Z,16.6
2022-10-23T23:54:01.905Z,16.4
2022-10-23T23:59:01.843Z,17.4
